ADDS METAR Data INFO
IDs: Format: Raw Decoded Include TAF

Data at: 0024 UTC 23 Oct 2017

KBHB 222356Z AUTO 11003KT 10SM CLR 11/08 A3046 RMK AO2 SLP321 6//// T01060078 10139 20106 58001 PNO $
KBHB 222256Z AUTO 11003KT 10SM CLR 11/08 A3047 RMK AO2 SLP323 T01060078 PNO $
KBHB 222156Z AUTO 11006KT 10SM CLR 11/08 A3047 RMK AO2 SLP324 T01110078 PNO $
KBHB 222056Z AUTO 11005KT 10SM CLR 12/06 A3047 RMK AO2 SLP321 6//// T01170061 51000 PNO $
KBHB 221956Z AUTO 10007KT 10SM CLR 13/06 A3046 RMK AO2 SLP320 T01280056 PNO $
KBHB 221856Z AUTO 10007KT 10SM CLR 13/06 A3047 RMK AO2 SLP322 T01330056 PNO $
KBHB 221756Z AUTO 11007KT 10SM CLR 14/06 A3046 RMK AO2 SLP321 6//// T01390061 10139 20078 56008 PNO $
KBHB 221656Z AUTO 10007KT 9SM CLR 14/06 A3047 RMK AO2 SLP323 T01390056 PNO $
KBHB 221556Z AUTO 10006KT 10SM CLR 13/04 A3048 RMK AO2 SLP326 T01280039 PNO $
KBHB 221456Z AUTO 10006KT 10SM CLR 11/03 A3049 RMK AO2 SLP329 6//// T01110028 50009 PNO $
KBHB 221356Z AUTO 07007KT 10SM CLR 11/02 A3049 RMK AO2 SLP329 T01110017 PNO $
KBHB 221256Z AUTO 01004KT 10SM CLR 09/04 A3048 RMK AO2 SLP325 T00890039 PNO $
KBHB 221156Z AUTO 02004KT 10SM CLR 08/04 A3046 RMK AO2 SLP319 6//// 7//// T00780039 10100 20072 51025 PNO $
KBHB 221056Z AUTO 04005KT 10SM CLR 08/04 A3043 RMK AO2 SLP310 T00780044 PNO $
KBHB 220956Z AUTO 02005KT 10SM CLR 08/06 A3042 RMK AO2 SLP305 T00780061 PNO $
KBHB 220856Z AUTO 03005KT 10SM FEW060 10/07 A3039 RMK AO2 SLP294 6//// T01000067 52012 PNO $
KBHB 220756Z AUTO 02005KT 10SM OVC060 09/07 A3038 RMK AO2 SLP291 T00940072 PNO $
KBHB 220656Z AUTO 35004KT 10SM BKN060 08/07 A3036 RMK AO2 SLP285 T00830067 PNO $
KBHB 220556Z AUTO 36005KT 10SM OVC060 09/07 A3035 RMK AO2 SLP282 6//// T00940072 10100 20078 53007 PNO $
KBHB 220456Z AUTO 00000KT 10SM CLR 08/06 A3034 RMK AO2 SLP278 T00830061 PNO $
KBHB 220356Z AUTO 34003KT 10SM CLR 08/06 A3033 RMK AO2 SLP275 T00830061 401830050 PNO $
KBHB 220256Z AUTO 00000KT 10SM CLR 09/07 A3033 RMK AO2 SLP275 6//// T00890067 51009 PNO $
KBHB 220156Z AUTO 00000KT 10SM CLR 09/06 A3032 RMK AO2 SLP271 T00890061 PNO $
KBHB 220056Z AUTO 00000KT 10SM CLR 10/06 A3032 RMK AO2 SLP271 T01000061 PNO $
KBHB 212356Z AUTO 00000KT 10SM CLR 09/06 A3030 RMK AO2 SLP266 6//// T00940061 10183 20094 51014 PNO $
KBHB 212256Z AUTO 00000KT 10SM CLR 10/06 A3029 RMK AO2 SLP262 T01000056 PNO $
KBHB 212156Z AUTO 19003KT 10SM CLR 13/06 A3028 RMK AO2 SLP258 T01330056 PNO $
KBHB 212056Z AUTO 21006KT 10SM CLR 14/07 A3026 RMK AO2 SLP252 6//// T01440067 51006 PNO $
KBHB 211956Z AUTO 21010KT 10SM CLR 17/05 A3026 RMK AO2 SLP251 T01670050 PNO $
KBHB 211856Z AUTO 22008KT 10SM CLR 17/06 A3025 RMK AO2 SLP247 T01720061 PNO $
KBHB 211756Z AUTO 21006KT 10SM OVC065 18/05 A3024 RMK AO2 SLP246 6//// T01830050 10183 20072 55004 PNO $
KBHB 211656Z AUTO 26007KT 230V300 10SM OVC065 18/05 A3024 RMK AO2 SLP245 T01830050 PNO $
KBHB 211556Z AUTO VRB06KT 10SM CLR 17/04 A3025 RMK AO2 SLP248 T01670039 PNO $
KBHB 211456Z AUTO VRB03KT 10SM CLR 16/03 A3026 RMK AO2 SLP250 6//// T01560033 50005 PNO $
KBHB 211356Z AUTO VRB03KT 10SM CLR 14/03 A3026 RMK AO2 SLP251 T01440033 PNO $
KBHB 211256Z AUTO 00000KT 10SM CLR 11/07 A3026 RMK AO2 SLP251 T01060067 PNO $